Time;durP1;ratioP1;P1;durP2;ratioP2;P2;SDS_P1;SDS_P2;PMS_P1;PMS_P2;Temp;Humidity;BMP_temperature;BMP_pressure;BME280_temperature;BME280_humidity;BME280_pressure;Samples;Min_cycle;Max_cycle;Signal;HPM_P1;HPM_P2
2022/05/11 00:00:43;;;;;;;11.50;6.30;;;;;;;17.34;73.28;100706.94;5979309;29;20027;-65
2022/05/11 00:03:39;;;;;;;11.27;6.50;;;;;;;17.36;73.37;100725.53;5976508;28;20031;-67
2022/05/11 00:06:36;;;;;;;15.00;6.55;;;;;;;17.08;74.46;100712.03;5974880;29;20470;-66
2022/05/11 00:09:31;;;;;;;15.98;7.57;;;;;;;16.98;74.74;100696.25;5975362;28;20039;-66
2022/05/11 00:12:26;;;;;;;11.43;6.60;;;;;;;17.36;73.74;100699.56;5979704;28;20039;-65
2022/05/11 00:15:23;;;;;;;16.25;7.70;;;;;;;17.23;74.18;100699.41;5979316;28;20436;-66
2022/05/11 00:18:18;;;;;;;13.02;7.25;;;;;;;17.21;73.81;100694.25;5978521;28;20098;-66
2022/05/11 00:21:14;;;;;;;13.63;6.97;;;;;;;17.20;74.33;100691.75;5974728;28;20039;-65
2022/05/11 00:24:10;;;;;;;14.15;7.47;;;;;;;16.95;74.65;100685.06;5967542;28;20467;-67
2022/05/11 00:27:05;;;;;;;17.33;7.53;;;;;;;16.88;75.37;100689.50;5979580;28;20034;-65
2022/05/11 00:30:02;;;;;;;10.23;6.60;;;;;;;17.03;74.78;100693.00;5979439;29;20078;-66
2022/05/11 00:32:58;;;;;;;16.83;7.57;;;;;;;16.89;74.77;100681.28;5969409;28;20045;-67
2022/05/11 00:35:54;;;;;;;11.88;7.35;;;;;;;16.86;75.63;100670.13;5979371;28;20043;-66
2022/05/11 00:38:49;;;;;;;13.20;7.30;;;;;;;16.92;75.27;100669.38;5971071;28;20463;-65
2022/05/11 00:41:46;;;;;;;13.43;7.07;;;;;;;16.88;75.39;100665.41;5976259;28;20035;-65
2022/05/11 00:44:42;;;;;;;13.88;8.27;;;;;;;16.79;75.92;100663.84;5968097;28;20035;-67
2022/05/11 00:47:41;;;;;;;13.90;7.82;;;;;;;16.80;75.80;100660.16;5971482;28;20090;-66
2022/05/11 00:50:43;;;;;;;13.18;6.90;;;;;;;16.87;75.63;100661.06;5988205;28;20046;-67
2022/05/11 00:53:41;;;;;;;15.10;8.93;;;;;;;16.80;75.87;100654.78;5978467;29;20102;-67
2022/05/11 00:56:39;;;;;;;13.02;7.72;;;;;;;16.83;75.79;100660.59;5976850;29;20183;-65
2022/05/11 00:59:37;;;;;;;12.45;7.03;;;;;;;17.09;74.83;100660.09;5969285;28;20396;-66
2022/05/11 01:02:32;;;;;;;12.48;7.10;;;;;;;17.19;73.69;100656.09;5978190;28;20031;-65
2022/05/11 01:05:28;;;;;;;15.75;8.13;;;;;;;17.08;74.20;100658.44;5973832;28;20081;-66
2022/05/11 01:08:24;;;;;;;12.45;6.72;;;;;;;17.13;74.00;100656.00;5979582;28;20520;-65
2022/05/11 01:11:19;;;;;;;12.82;7.47;;;;;;;17.03;74.65;100663.53;5978160;29;20035;-66
2022/05/11 01:14:17;;;;;;;12.87;7.07;;;;;;;17.03;74.96;100666.22;5970733;28;20047;-66
2022/05/11 01:17:12;;;;;;;12.32;6.63;;;;;;;17.14;74.14;100668.41;5967224;28;20263;-67
2022/05/11 01:20:10;;;;;;;12.50;7.47;;;;;;;17.03;75.00;100671.56;5976902;28;20049;-66
2022/05/11 01:23:22;;;;;;;13.70;8.45;;;;;;;17.02;75.25;100677.94;5973777;28;20035;-67
2022/05/11 01:26:18;;;;;;;16.67;8.75;;;;;;;16.80;77.06;100679.72;5987512;28;20106;-65
2022/05/11 01:29:13;;;;;;;19.80;8.65;;;;;;;16.57;80.68;100682.53;5978372;28;20045;-66
2022/05/11 01:32:09;;;;;;;15.87;9.30;;;;;;;16.28;81.88;100661.06;5978035;28;20039;-66
2022/05/11 01:35:40;;;;;;;15.13;9.70;;;;;;;16.13;83.63;100675.47;5967494;28;20285;-64
2022/05/11 01:38:41;;;;;;;18.95;9.73;;;;;;;15.91;84.95;100651.28;5955662;28;20487;-66
2022/05/11 01:41:41;;;;;;;24.42;12.52;;;;;;;15.77;85.18;100645.88;5977836;28;20471;-64
2022/05/11 01:44:37;;;;;;;24.13;11.18;;;;;;;15.66;85.79;100659.69;5976037;28;20117;-65
2022/05/11 01:47:32;;;;;;;23.25;12.50;;;;;;;15.75;85.83;100672.81;5974433;28;20047;-64
2022/05/11 01:50:27;;;;;;;24.73;11.13;;;;;;;15.59;87.13;100670.28;5978420;28;20039;-65
2022/05/11 01:53:23;;;;;;;22.03;11.10;;;;;;;15.51;87.84;100656.16;5977067;28;20039;-65
2022/05/11 01:56:21;;;;;;;22.65;11.40;;;;;;;15.52;88.52;100647.94;5977687;28;20537;-65
2022/05/11 01:59:16;;;;;;;19.88;11.07;;;;;;;15.76;88.71;100655.75;5972091;28;20050;-65
2022/05/11 02:02:12;;;;;;;17.95;10.32;;;;;;;15.66;88.24;100648.97;5977675;28;20050;-65
2022/05/11 02:08:22;;;;;;;20.75;11.13;;;;;;;15.23;88.67;100637.09;5974124;29;20032;-66
2022/05/11 02:11:17;;;;;;;21.58;11.32;;;;;;;15.11;89.13;100628.66;5971122;28;20035;-66
2022/05/11 02:14:13;;;;;;;24.75;13.82;;;;;;;15.16;89.61;100620.13;5979250;28;20529;-65
2022/05/11 02:17:08;;;;;;;24.27;13.20;;;;;;;15.18;90.29;100637.66;5969938;28;20031;-65
2022/05/11 02:20:04;;;;;;;23.10;12.87;;;;;;;15.16;90.08;100604.94;5976588;28;20035;-65
2022/05/11 02:23:00;;;;;;;22.23;12.63;;;;;;;15.11;89.62;100606.50;5979080;28;20295;-66
2022/05/11 02:25:55;;;;;;;20.92;11.38;;;;;;;15.13;89.43;100618.66;5978808;28;20035;-65
2022/05/11 02:28:50;;;;;;;21.48;12.40;;;;;;;15.22;88.99;100614.09;5966832;28;20035;-65
2022/05/11 02:31:46;;;;;;;26.30;12.23;;;;;;;15.23;88.30;100605.03;5978410;28;20043;-65
2022/05/11 02:38:01;;;;;;;18.42;10.65;;;;;;;15.20;88.70;100602.72;5973650;28;20027;-66
2022/05/11 02:40:56;;;;;;;19.92;10.13;;;;;;;15.22;87.97;100592.72;5978114;28;20110;-65
2022/05/11 02:43:51;;;;;;;22.03;11.60;;;;;;;15.22;87.70;100590.84;5978154;28;20035;-66
2022/05/11 02:46:46;;;;;;;19.40;10.63;;;;;;;15.24;87.73;100580.84;5976682;28;20411;-65
2022/05/11 02:49:42;;;;;;;18.97;11.13;;;;;;;15.24;86.89;100575.50;5979117;28;20043;-64
2022/05/11 02:52:37;;;;;;;17.30;9.67;;;;;;;15.29;85.77;100566.94;5972577;28;20427;-64
2022/05/11 02:55:32;;;;;;;18.97;9.60;;;;;;;15.36;85.24;100574.03;5978609;28;20430;-66
2022/05/11 02:58:33;;;;;;;20.57;9.70;;;;;;;15.39;85.38;100578.19;5974519;28;20031;-66
2022/05/11 03:01:29;;;;;;;23.08;9.80;;;;;;;15.41;85.23;100582.34;5977670;28;20030;-66
2022/05/11 03:04:25;;;;;;;26.10;10.60;;;;;;;15.46;84.76;100580.00;5972108;28;20066;-65
2022/05/11 03:07:20;;;;;;;20.98;9.77;;;;;;;15.41;84.23;100571.66;5980344;28;20114;-66
2022/05/11 03:10:16;;;;;;;21.63;10.23;;;;;;;15.44;84.53;100582.00;5980920;28;20041;-66
2022/05/11 03:13:11;;;;;;;18.90;9.20;;;;;;;15.45;83.52;100567.63;5975348;28;20318;-64
2022/05/11 03:16:07;;;;;;;19.70;9.87;;;;;;;15.39;84.81;100563.00;5982529;28;20403;-65
2022/05/11 03:19:02;;;;;;;22.05;9.80;;;;;;;15.39;84.60;100563.00;5973036;28;20557;-65
2022/05/11 03:21:58;;;;;;;19.17;9.23;;;;;;;15.32;84.67;100554.06;5978879;28;20049;-64
2022/05/11 03:24:53;;;;;;;19.70;10.60;;;;;;;15.32;85.10;100559.41;5984388;28;20086;-65
2022/05/11 03:27:49;;;;;;;19.40;9.83;;;;;;;15.36;84.88;100558.00;5980606;28;20346;-65
2022/05/11 03:30:45;;;;;;;17.05;9.25;;;;;;;15.28;84.52;100544.72;5981036;28;20058;-65
2022/05/11 03:36:55;;;;;;;21.67;9.48;;;;;;;15.32;84.21;100540.69;5982467;28;20086;-66
2022/05/11 03:39:50;;;;;;;20.60;9.83;;;;;;;15.30;83.45;100542.69;5970566;28;20051;-66
2022/05/11 03:42:45;;;;;;;19.73;9.53;;;;;;;15.23;83.78;100540.94;5976249;28;20035;-66
2022/05/11 03:45:41;;;;;;;18.95;9.52;;;;;;;15.21;83.65;100538.44;5975938;28;20074;-67
2022/05/11 03:48:39;;;;;;;18.77;8.77;;;;;;;15.27;83.80;100537.72;5978992;28;20471;-66
2022/05/11 03:51:34;;;;;;;18.85;9.23;;;;;;;15.27;83.97;100543.03;5970936;28;20035;-66
2022/05/11 03:54:30;;;;;;;19.00;9.67;;;;;;;15.20;84.59;100530.59;5969689;28;20043;-66
2022/05/11 03:57:26;;;;;;;18.13;9.77;;;;;;;15.19;84.48;100527.09;5979025;28;20394;-65
2022/05/11 04:00:23;;;;;;;20.37;9.63;;;;;;;15.23;84.54;100532.91;5971275;28;20174;-66
2022/05/11 04:03:19;;;;;;;20.30;9.63;;;;;;;15.26;84.28;100530.72;5977938;28;20281;-66
2022/05/11 04:06:14;;;;;;;18.00;9.77;;;;;;;15.26;84.00;100527.22;5981314;28;20031;-64
2022/05/11 04:09:09;;;;;;;16.27;9.00;;;;;;;15.27;83.52;100520.88;5979739;28;20114;-65
2022/05/11 04:12:06;;;;;;;17.93;8.57;;;;;;;15.33;83.71;100525.47;5986192;28;20027;-65
2022/05/11 04:15:03;;;;;;;19.08;9.85;;;;;;;15.33;83.76;100515.63;5979744;28;20031;-66
2022/05/11 04:17:58;;;;;;;17.80;10.07;;;;;;;15.38;83.59;100523.91;5968443;28;20033;-66
2022/05/11 04:20:53;;;;;;;18.40;10.20;;;;;;;15.43;83.51;100526.91;5975000;28;20391;-66
2022/05/11 04:23:48;;;;;;;18.90;10.43;;;;;;;15.40;83.82;100524.59;5981395;28;20389;-65
2022/05/11 04:26:44;;;;;;;15.97;8.63;;;;;;;15.42;82.95;100514.53;5979350;28;20129;-65
2022/05/11 04:29:40;;;;;;;18.83;11.20;;;;;;;15.42;82.70;100522.56;5968029;28;20107;-66
2022/05/11 04:32:35;;;;;;;17.25;9.52;;;;;;;15.49;82.54;100515.47;5991248;28;20094;-66
2022/05/11 04:35:30;;;;;;;22.17;10.07;;;;;;;15.56;82.51;100520.09;5973984;28;20039;-65
2022/05/11 04:38:25;;;;;;;21.00;10.50;;;;;;;15.57;82.39;100511.09;5976526;28;20085;-67
2022/05/11 04:41:21;;;;;;;18.40;9.63;;;;;;;15.59;82.07;100519.75;5973564;28;20043;-67
2022/05/11 04:44:16;;;;;;;18.00;10.70;;;;;;;15.59;82.81;100522.41;5976411;28;20390;-65
2022/05/11 04:47:14;;;;;;;20.33;12.55;;;;;;;15.61;82.68;100523.06;5980660;28;20031;-65
2022/05/11 04:50:14;;;;;;;21.23;11.05;;;;;;;15.65;82.80;100527.03;5973648;28;20475;-64
2022/05/11 04:53:11;;;;;;;18.00;11.02;;;;;;;15.60;83.34;100514.19;5976833;28;20034;-66
2022/05/11 04:56:06;;;;;;;22.52;10.88;;;;;;;15.72;82.97;100527.94;5978922;28;20035;-65
2022/05/11 04:59:02;;;;;;;20.27;11.10;;;;;;;15.74;83.16;100523.25;5978660;28;20037;-65
2022/05/11 05:01:59;;;;;;;21.37;11.40;;;;;;;15.70;83.29;100512.09;5978272;28;20027;-66
2022/05/11 05:04:59;;;;;;;20.63;11.38;;;;;;;15.82;83.60;100520.47;5974657;28;20039;-65
2022/05/11 05:07:54;;;;;;;22.67;11.85;;;;;;;15.80;83.40;100512.66;5978044;28;20031;-65
2022/05/11 05:10:49;;;;;;;21.77;11.33;;;;;;;15.85;83.75;100520.13;5978097;28;20039;-67
2022/05/11 05:13:44;;;;;;;20.57;12.33;;;;;;;15.86;83.96;100529.81;5978581;28;20499;-65
2022/05/11 05:16:40;;;;;;;21.17;11.80;;;;;;;15.93;83.43;100525.38;5976071;28;20023;-65
2022/05/11 05:19:42;;;;;;;21.17;11.87;;;;;;;16.07;82.82;100533.41;5978063;28;20042;-65
2022/05/11 05:22:38;;;;;;;21.30;12.00;;;;;;;16.14;83.33;100530.81;5969591;28;20534;-66
2022/05/11 05:25:33;;;;;;;21.23;11.77;;;;;;;16.19;82.73;100528.41;5982956;28;20046;-66
2022/05/11 05:31:43;;;;;;;21.42;11.43;;;;;;;16.56;81.46;100533.63;5991741;28;20047;-64
2022/05/11 05:34:39;;;;;;;25.17;11.67;;;;;;;16.47;81.48;100534.69;5978309;28;20480;-66
2022/05/11 05:37:35;;;;;;;19.77;11.63;;;;;;;16.49;80.64;100529.19;5987821;28;20034;-66
2022/05/11 05:40:30;;;;;;;22.27;12.70;;;;;;;16.50;81.01;100533.50;5986530;28;20038;-64
2022/05/11 05:43:25;;;;;;;23.47;12.77;;;;;;;16.54;80.22;100529.47;5977112;28;20066;-65
2022/05/11 05:46:21;;;;;;;25.17;13.07;;;;;;;16.57;80.62;100529.94;5978620;28;20505;-66
2022/05/11 05:49:16;;;;;;;25.45;12.05;;;;;;;16.71;80.21;100527.38;5975605;28;20035;-66
2022/05/11 05:52:20;;;;;;;27.13;12.50;;;;;;;16.73;80.12;100542.25;5977100;28;20046;-65
2022/05/11 05:55:16;;;;;;;21.27;10.75;;;;;;;16.89;79.71;100525.09;5968228;28;20031;-65
2022/05/11 05:58:11;;;;;;;22.77;12.18;;;;;;;17.02;78.76;100536.75;5958589;28;20138;-64
2022/05/11 06:01:07;;;;;;;33.03;12.43;;;;;;;16.95;78.06;100535.03;5978773;28;20467;-66
2022/05/11 06:04:02;;;;;;;22.92;12.00;;;;;;;17.05;77.52;100524.81;5974706;28;20046;-66
2022/05/11 06:06:58;;;;;;;22.67;11.65;;;;;;;17.05;78.49;100527.50;5985116;28;20035;-65
2022/05/11 06:09:53;;;;;;;22.63;11.10;;;;;;;17.17;78.69;100523.28;5979221;28;20039;-66
2022/05/11 06:12:48;;;;;;;20.50;10.10;;;;;;;17.24;78.37;100524.16;5972418;28;20031;-64
2022/05/11 06:15:44;;;;;;;20.37;10.00;;;;;;;17.37;78.25;100524.28;5974658;28;20333;-64
2022/05/11 06:18:41;;;;;;;18.25;9.75;;;;;;;17.35;77.71;100517.44;5975417;28;20043;-66
2022/05/11 06:21:36;;;;;;;18.95;10.38;;;;;;;17.27;77.66;100515.75;5974422;28;20487;-66
2022/05/11 06:24:32;;;;;;;18.23;10.37;;;;;;;17.23;78.17;100509.94;5979281;28;20050;-65
2022/05/11 06:27:29;;;;;;;21.85;10.75;;;;;;;17.32;77.63;100505.25;5973835;28;20032;-64
2022/05/11 06:30:25;;;;;;;20.10;10.63;;;;;;;17.36;77.48;100501.19;5977980;28;20035;-64
2022/05/11 06:33:20;;;;;;;16.38;9.70;;;;;;;17.59;76.42;100504.47;5973398;28;20043;-66
2022/05/11 06:36:16;;;;;;;17.13;9.53;;;;;;;17.68;76.56;100494.41;5976793;28;20542;-66
2022/05/11 06:39:11;;;;;;;16.52;9.48;;;;;;;17.63;76.13;100476.25;5982424;28;20659;-64
2022/05/11 06:42:12;;;;;;;20.63;10.33;;;;;;;17.62;76.72;100485.28;5980668;28;20097;-64
2022/05/11 06:45:09;;;;;;;20.60;10.10;;;;;;;17.90;76.25;100481.72;5972497;29;20275;-66
2022/05/11 06:48:05;;;;;;;18.10;9.65;;;;;;;18.01;75.18;100483.84;5995411;28;20026;-65
2022/05/11 06:51:00;;;;;;;21.63;11.48;;;;;;;17.87;75.44;100479.44;5985328;28;20038;-65
2022/05/11 07:00:27;;;;;;;18.45;10.48;;;;;;;18.13;73.99;100460.75;5978618;29;20035;-64
2022/05/11 07:03:22;;;;;;;17.98;10.65;;;;;;;18.22;74.87;100460.41;5982208;28;20403;-65
2022/05/11 07:06:18;;;;;;;18.00;10.57;;;;;;;18.30;74.22;100454.00;5983692;28;20031;-65
2022/05/11 07:09:13;;;;;;;27.77;10.80;;;;;;;18.40;74.67;100451.75;5977101;29;20054;-65
2022/05/11 07:12:18;;;;;;;17.53;9.23;;;;;;;18.68;72.17;100454.31;5988143;28;20030;-64
2022/05/11 07:15:16;;;;;;;14.68;8.70;;;;;;;18.77;71.39;100448.56;5978999;29;20035;-66
2022/05/11 07:18:11;;;;;;;14.18;7.18;;;;;;;19.11;67.11;100439.44;5983129;28;20031;-64
2022/05/11 07:21:08;;;;;;;11.68;6.22;;;;;;;19.32;65.60;100439.22;5974710;28;20047;-65
2022/05/11 07:24:03;;;;;;;12.50;6.50;;;;;;;19.41;65.18;100435.31;5981444;28;20062;-63
2022/05/11 07:26:59;;;;;;;10.40;6.25;;;;;;;19.65;64.51;100436.47;5976813;28;20383;-65
2022/05/11 07:29:55;;;;;;;12.38;6.63;;;;;;;19.82;63.11;100440.38;5979923;28;20039;-66
2022/05/11 07:32:50;;;;;;;10.35;6.93;;;;;;;19.35;64.43;100435.31;5985323;28;20502;-64
2022/05/11 07:35:46;;;;;;;14.97;6.90;;;;;;;19.67;64.97;100438.97;5981983;29;20050;-65
2022/05/11 07:38:41;;;;;;;8.90;6.30;;;;;;;20.12;63.85;100448.72;5982748;28;20023;-65
2022/05/11 07:41:36;;;;;;;12.07;7.03;;;;;;;20.36;61.00;100441.78;5978897;28;20428;-65
2022/05/11 07:44:32;;;;;;;12.20;7.07;;;;;;;20.53;60.84;100441.06;5979917;28;20087;-65
2022/05/11 07:47:27;;;;;;;12.75;7.03;;;;;;;20.39;61.08;100435.97;5975223;28;20162;-64
2022/05/11 07:50:23;;;;;;;10.90;6.57;;;;;;;20.46;62.57;100436.78;5979379;28;20043;-65
2022/05/11 07:53:18;;;;;;;11.17;6.67;;;;;;;20.51;62.44;100431.56;5985480;28;20047;-65
2022/05/11 08:02:41;;;;;;;14.75;7.57;;;;;;;20.75;60.80;100422.69;5978697;29;20055;-65
2022/05/11 08:05:37;;;;;;;12.47;6.83;;;;;;;20.82;61.04;100422.63;5978666;28;20043;-66
2022/05/11 08:08:32;;;;;;;12.20;6.60;;;;;;;21.19;60.55;100419.00;5975335;28;20415;-66
2022/05/11 08:11:28;;;;;;;11.10;5.93;;;;;;;21.24;61.56;100419.16;5977088;29;20043;-65
2022/05/11 08:14:23;;;;;;;10.23;6.77;;;;;;;21.51;60.34;100417.00;5967980;29;20040;-66
2022/05/11 08:17:26;;;;;;;9.67;5.93;;;;;;;21.81;59.48;100401.72;5981780;28;20063;-64
2022/05/11 08:20:24;;;;;;;10.27;6.93;;;;;;;22.00;57.54;100399.84;5978493;28;20047;-66
2022/05/11 08:23:21;;;;;;;10.85;7.57;;;;;;;22.36;55.72;100397.06;5987830;28;20042;-63
2022/05/11 08:26:16;;;;;;;9.80;6.88;;;;;;;22.53;55.89;100388.03;5980406;28;20042;-65
2022/05/11 08:33:19;;;;;;;10.15;6.60;;;;;;;23.31;55.48;100392.34;5968344;28;20068;-65
2022/05/11 08:35:46;;;;;;;7.53;6.15;;;;;;;23.52;52.29;100383.63;5980237;28;20039;-64
2022/05/11 08:38:44;;;;;;;9.18;6.60;;;;;;;23.21;51.00;100381.31;5971106;28;20540;-66
2022/05/11 08:41:45;;;;;;;9.35;6.32;;;;;;;22.82;53.67;100380.13;5977910;28;20566;-66
2022/05/11 08:44:50;;;;;;;9.18;5.97;;;;;;;22.64;54.42;100381.03;5979744;28;20035;-65
2022/05/11 08:47:48;;;;;;;9.57;6.60;;;;;;;22.35;54.42;100393.50;5979064;28;20035;-65
2022/05/11 08:50:45;;;;;;;9.88;6.00;;;;;;;22.35;54.76;100388.13;5974820;28;20032;-65
2022/05/11 08:53:41;;;;;;;11.50;6.88;;;;;;;22.19;55.05;100377.97;5980433;28;20073;-65
2022/05/11 08:56:37;;;;;;;10.32;6.45;;;;;;;21.71;56.87;100386.06;5980192;28;20114;-64
2022/05/11 08:59:32;;;;;;;8.95;5.88;;;;;;;21.67;56.30;100384.03;5976581;28;20041;-65
2022/05/11 09:02:52;;;;;;;10.73;6.95;;;;;;;21.84;56.47;100372.38;5976038;28;20043;-65
2022/05/11 09:05:48;;;;;;;15.20;6.78;;;;;;;22.31;56.73;100359.09;5959674;28;20039;-66
2022/05/11 09:08:43;;;;;;;10.70;6.63;;;;;;;22.51;56.34;100355.00;5979990;29;20039;-65
2022/05/11 09:11:41;;;;;;;10.55;6.60;;;;;;;22.69;54.30;100358.72;5976346;29;20465;-64
2022/05/11 09:14:42;;;;;;;14.05;6.38;;;;;;;23.06;52.54;100354.72;5972108;28;20031;-66
2022/05/11 09:17:39;;;;;;;8.05;5.85;;;;;;;23.21;53.22;100354.25;5973850;28;20035;-66
2022/05/11 09:20:35;;;;;;;9.60;5.90;;;;;;;23.64;54.40;100349.25;5983009;28;20079;-66
2022/05/11 09:23:36;;;;;;;9.38;6.32;;;;;;;23.74;52.08;100354.03;5980759;28;20041;-65
2022/05/11 09:26:36;;;;;;;10.27;6.15;;;;;;;23.66;51.47;100342.53;5979202;28;20035;-65
2022/05/11 09:29:43;;;;;;;8.43;6.85;;;;;;;23.70;52.43;100354.50;5979510;28;20376;-65
2022/05/11 09:32:42;;;;;;;10.55;5.53;;;;;;;23.97;50.42;100352.03;5978715;28;20038;-66
2022/05/11 09:35:38;;;;;;;;;;;;;;;24.23;50.35;100354.22;5983514;28;20462;-65
2022/05/11 09:38:36;;;;;;;10.43;5.65;;;;;;;24.51;50.41;100349.81;5979372;28;19914;-66
2022/05/11 09:41:33;;;;;;;8.77;4.75;;;;;;;24.30;49.26;100337.78;5978423;28;20038;-65
2022/05/11 09:44:41;;;;;;;7.85;5.18;;;;;;;24.30;49.60;100354.03;5978767;28;20044;-65
2022/05/11 09:48:02;;;;;;;6.88;5.13;;;;;;;24.62;48.18;100349.69;5978823;28;20174;-66
2022/05/11 09:50:54;;;;;;;8.05;4.60;;;;;;;24.84;48.89;100341.66;5980392;28;20035;-65
2022/05/11 09:54:15;;;;;;;9.32;5.20;;;;;;;24.89;47.14;100341.75;5983034;28;20055;-66
2022/05/11 09:57:13;;;;;;;5.72;4.03;;;;;;;24.36;46.86;100339.50;5971845;29;20106;-65
2022/05/11 10:00:22;;;;;;;8.48;4.20;;;;;;;24.50;47.10;100337.31;5978075;28;20043;-67
2022/05/11 10:03:25;;;;;;;6.75;4.50;;;;;;;24.59;46.24;100333.13;5977585;28;20114;-67
2022/05/11 10:06:21;;;;;;;7.50;4.40;;;;;;;24.88;47.22;100331.16;5982298;28;20039;-65
2022/05/11 10:09:22;;;;;;;7.45;4.57;;;;;;;24.92;46.37;100338.56;5975224;28;20395;-66
2022/05/11 10:12:21;;;;;;;9.82;5.20;;;;;;;24.76;45.74;100332.03;5966947;28;20123;-66
2022/05/11 10:22:00;;;;;;;8.35;4.22;;;;;;;24.98;44.35;100318.53;5983899;28;20475;-66
2022/05/11 10:25:14;;;;;;;9.65;4.50;;;;;;;24.94;43.25;100316.59;5974077;29;20134;-67
2022/05/11 10:28:16;;;;;;;9.93;4.05;;;;;;;24.84;43.93;100309.09;5980257;29;20081;-66
2022/05/11 10:31:47;;;;;;;6.65;5.03;;;;;;;24.68;42.80;100301.78;5981511;28;20447;-66
2022/05/11 10:34:48;;;;;;;6.18;4.38;;;;;;;24.56;44.27;100310.03;5974261;28;20403;-65
2022/05/11 10:37:52;;;;;;;8.32;4.63;;;;;;;24.65;43.86;100303.09;5986753;28;20031;-66
2022/05/11 10:41:29;;;;;;;7.68;4.13;;;;;;;24.92;43.88;100307.88;5981229;28;20034;-66
2022/05/11 10:44:49;;;;;;;6.32;4.10;;;;;;;25.08;45.88;100296.16;5976098;29;20051;-66
2022/05/11 10:48:15;;;;;;;10.55;4.85;;;;;;;25.02;44.22;100292.56;5977530;28;20133;-67
2022/05/11 10:51:33;;;;;;;6.70;4.25;;;;;;;25.03;45.11;100282.53;5972587;28;20111;-67
2022/05/11 10:54:43;;;;;;;6.57;4.78;;;;;;;24.94;45.01;100284.84;5970564;28;20027;-65
2022/05/11 10:57:49;;;;;;;6.38;4.47;;;;;;;25.26;43.66;100282.28;5969888;28;20118;-67
2022/05/11 11:01:11;;;;;;;6.68;3.80;;;;;;;25.30;43.16;100273.38;5976180;28;20086;-67
2022/05/11 11:04:44;;;;;;;6.38;3.90;;;;;;;25.39;44.30;100279.19;5963776;29;20067;-67
2022/05/11 11:08:17;;;;;;;9.80;3.97;;;;;;;25.66;42.49;100271.91;5941035;28;20044;-67
2022/05/11 11:11:39;;;;;;;6.85;3.72;;;;;;;26.20;42.80;100261.06;5963503;29;20110;-65
2022/05/11 11:14:37;;;;;;;4.13;3.00;;;;;;;26.28;38.34;100257.88;5997577;28;20031;-66
2022/05/11 11:17:33;;;;;;;3.58;2.78;;;;;;;26.26;39.37;100249.94;5979175;28;20031;-67
2022/05/11 11:20:32;;;;;;;6.70;2.88;;;;;;;26.65;36.94;100241.50;5980181;28;20047;-66
2022/05/11 11:23:30;;;;;;;6.55;2.78;;;;;;;26.87;37.61;100247.66;5976584;28;20562;-67
2022/05/11 11:26:28;;;;;;;9.13;2.78;;;;;;;26.47;37.58;100240.84;5978082;28;20035;-67
2022/05/11 11:29:25;;;;;;;9.68;2.72;;;;;;;26.77;36.71;100229.34;5965379;29;20043;-67
2022/05/11 11:32:21;;;;;;;6.43;3.35;;;;;;;26.99;37.80;100232.75;5973386;29;20059;-65
2022/05/11 11:35:22;;;;;;;5.90;2.80;;;;;;;27.02;38.21;100237.66;5984511;28;20046;-67
2022/05/11 11:38:30;;;;;;;4.43;2.55;;;;;;;26.89;37.92;100238.16;5981715;28;20483;-66
2022/05/11 11:41:28;;;;;;;6.60;2.83;;;;;;;27.11;37.95;100232.53;5980946;28;20031;-66
2022/05/11 11:44:27;;;;;;;4.85;2.80;;;;;;;26.92;36.18;100229.47;5980036;28;20067;-66
2022/05/11 11:47:26;;;;;;;6.05;3.13;;;;;;;26.81;37.35;100235.94;5977168;29;20067;-66
2022/05/11 11:50:50;;;;;;;6.70;3.30;;;;;;;26.53;38.96;100225.38;5980588;28;20036;-67
2022/05/11 11:53:51;;;;;;;5.75;2.75;;;;;;;26.96;38.42;100221.59;5981117;28;20038;-66
2022/05/11 11:56:47;;;;;;;9.55;2.70;;;;;;;26.75;37.27;100228.78;5979317;28;20035;-66
2022/05/11 11:59:57;;;;;;;9.65;2.92;;;;;;;26.59;36.94;100216.19;5982533;28;20027;-67
2022/05/11 12:02:53;;;;;;;5.25;2.60;;;;;;;26.63;37.27;100217.31;5977428;28;20146;-67
2022/05/11 12:05:55;;;;;;;7.68;3.10;;;;;;;26.61;37.89;100216.72;5979598;28;20131;-66
2022/05/11 12:15:27;;;;;;;5.45;2.90;;;;;;;26.65;39.08;100220.56;5979648;28;20035;-67
2022/05/11 12:18:29;;;;;;;5.15;3.50;;;;;;;26.96;39.57;100211.50;5970834;28;20384;-66
2022/05/11 12:21:33;;;;;;;7.07;3.60;;;;;;;26.91;37.15;100208.75;5974741;28;20038;-66
2022/05/11 12:24:33;;;;;;;7.13;3.13;;;;;;;27.05;38.81;100218.09;5973894;29;20070;-65
2022/05/11 12:27:32;;;;;;;6.85;3.13;;;;;;;26.84;37.42;100213.63;5978584;28;20398;-66
2022/05/11 12:30:32;;;;;;;7.97;3.08;;;;;;;26.83;37.99;100214.72;5979907;28;20085;-65
2022/05/11 12:33:32;;;;;;;5.57;3.08;;;;;;;27.05;37.01;100198.19;5975671;28;20046;-67
2022/05/11 12:36:38;;;;;;;5.93;3.33;;;;;;;27.36;38.03;100205.41;5968393;28;20035;-67
2022/05/11 12:39:38;;;;;;;12.88;3.47;;;;;;;27.48;36.17;100208.72;5975702;28;20035;-66
2022/05/11 12:42:37;;;;;;;7.97;2.90;;;;;;;27.40;36.33;100200.22;5974872;29;20114;-66
2022/05/11 12:45:41;;;;;;;7.72;2.80;;;;;;;27.13;36.26;100195.78;5980672;28;20467;-67
2022/05/11 12:48:41;;;;;;;6.57;2.50;;;;;;;26.90;34.83;100193.53;5980657;28;20042;-67
2022/05/11 12:51:38;;;;;;;5.85;2.80;;;;;;;27.13;36.23;100192.22;5977222;28;20043;-66
2022/05/11 12:54:33;;;;;;;6.75;2.58;;;;;;;26.84;35.60;100188.31;5977960;29;20135;-66
2022/05/11 12:57:40;;;;;;;6.18;2.85;;;;;;;27.13;35.74;100184.88;5973477;28;20042;-66
2022/05/11 13:00:35;;;;;;;7.55;2.90;;;;;;;27.16;36.37;100189.81;5972746;29;20034;-67
2022/05/11 13:03:33;;;;;;;6.07;2.50;;;;;;;27.28;36.10;100186.84;5973468;28;20036;-67
2022/05/11 13:06:40;;;;;;;8.82;2.90;;;;;;;27.25;35.57;100181.94;5974122;28;20285;-67
2022/05/11 13:09:45;;;;;;;9.32;3.10;;;;;;;27.25;34.47;100181.13;5970118;28;20058;-66
2022/05/11 13:12:41;;;;;;;7.38;3.17;;;;;;;27.26;35.41;100177.31;5983340;28;20075;-67
2022/05/11 13:15:41;;;;;;;7.05;2.70;;;;;;;27.48;34.64;100169.75;5970390;28;20039;-67
2022/05/11 13:18:38;;;;;;;5.70;3.28;;;;;;;27.56;33.99;100178.19;5979051;29;20533;-68
2022/05/11 13:21:36;;;;;;;5.20;2.75;;;;;;;27.36;34.82;100169.16;5981000;28;20039;-67
2022/05/11 13:24:41;;;;;;;5.28;2.70;;;;;;;27.28;33.82;100164.25;5984631;28;20035;-67
2022/05/11 13:27:48;;;;;;;8.65;2.70;;;;;;;27.48;33.47;100173.28;5979946;28;20043;-65
2022/05/11 13:30:46;;;;;;;6.20;2.30;;;;;;;27.31;33.62;100177.31;5979034;28;20093;-66
2022/05/11 13:33:43;;;;;;;6.05;3.10;;;;;;;27.26;33.98;100160.97;5979867;28;20405;-67
2022/05/11 13:36:44;;;;;;;4.03;2.42;;;;;;;27.56;35.38;100156.41;5960220;29;20040;-66
2022/05/11 13:39:39;;;;;;;7.82;3.03;;;;;;;27.57;34.84;100157.22;5974106;28;20031;-67
2022/05/11 13:42:34;;;;;;;4.77;2.73;;;;;;;27.62;33.71;100143.59;5969735;28;20029;-67
2022/05/11 13:45:30;;;;;;;9.25;3.00;;;;;;;27.98;33.62;100147.97;5988662;28;20279;-66
2022/05/11 13:48:31;;;;;;;9.33;2.60;;;;;;;28.08;32.75;100142.53;5979001;28;20118;-68
2022/05/11 13:51:27;;;;;;;7.90;2.58;;;;;;;27.67;34.27;100146.31;5978847;28;20034;-68
2022/05/11 13:54:34;;;;;;;5.38;2.80;;;;;;;27.52;34.01;100138.97;5981485;28;20039;-67
2022/05/11 13:57:35;;;;;;;8.57;2.70;;;;;;;27.50;34.18;100143.88;5979325;28;20471;-67
2022/05/11 14:00:30;;;;;;;5.30;2.35;;;;;;;27.34;33.95;100125.03;5978789;28;20035;-68
2022/05/11 14:03:31;;;;;;;7.37;2.87;;;;;;;27.65;33.17;100119.38;5975824;28;20546;-67
2022/05/11 14:06:51;;;;;;;5.85;2.58;;;;;;;27.63;33.73;100109.81;5973025;28;20054;-68
2022/05/11 14:09:46;;;;;;;6.72;2.47;;;;;;;27.66;35.23;100109.28;5973032;28;20039;-68
2022/05/11 14:12:41;;;;;;;8.37;2.80;;;;;;;27.60;32.88;100107.63;5975751;28;20427;-67
2022/05/11 14:15:37;;;;;;;4.70;2.40;;;;;;;27.87;33.46;100118.25;5979174;28;20035;-67
2022/05/11 14:18:32;;;;;;;6.93;2.50;;;;;;;28.02;33.70;100105.44;5979100;28;20042;-67
2022/05/11 14:21:28;;;;;;;8.00;3.00;;;;;;;28.30;32.84;100096.66;5977669;28;20279;-67
2022/05/11 14:24:23;;;;;;;6.43;2.83;;;;;;;28.38;33.26;100110.81;5979087;28;20038;-67
2022/05/11 14:27:18;;;;;;;5.83;2.67;;;;;;;28.42;31.92;100098.25;5981546;28;20034;-66